sensor_id;sensor_type;location;lat;lon;timestamp;pressure;altitude;pressure_sealevel;temperature;humidity
5609;BME280;2826;51.354;9.588;2023-12-07T00:02:16;98296.25;;;3.81;87.93
5609;BME280;2826;51.354;9.588;2023-12-07T00:04:43;98295.38;;;3.82;87.82
5609;BME280;2826;51.354;9.588;2023-12-07T00:07:09;98299.69;;;3.83;87.95
5609;BME280;2826;51.354;9.588;2023-12-07T00:09:36;98303.06;;;3.84;87.58
5609;BME280;2826;51.354;9.588;2023-12-07T00:12:03;98300.56;;;3.81;88.09
5609;BME280;2826;51.354;9.588;2023-12-07T00:14:30;98302.25;;;3.82;88.03
5609;BME280;2826;51.354;9.588;2023-12-07T00:16:56;98305.66;;;3.82;88.12
5609;BME280;2826;51.354;9.588;2023-12-07T00:19:24;98309.06;;;3.83;88.00
5609;BME280;2826;51.354;9.588;2023-12-07T00:21:50;98314.22;;;3.83;87.70
5609;BME280;2826;51.354;9.588;2023-12-07T00:24:17;98312.50;;;3.83;87.94
5609;BME280;2826;51.354;9.588;2023-12-07T00:26:44;98310.75;;;3.85;87.62
5609;BME280;2826;51.354;9.588;2023-12-07T00:29:10;98307.38;;;3.83;87.66
5609;BME280;2826;51.354;9.588;2023-12-07T00:31:37;98315.00;;;3.86;87.69
5609;BME280;2826;51.354;9.588;2023-12-07T00:34:03;98313.34;;;3.84;87.63
5609;BME280;2826;51.354;9.588;2023-12-07T00:36:32;98318.47;;;3.84;87.63
5609;BME280;2826;51.354;9.588;2023-12-07T00:38:59;98310.75;;;3.85;87.49
5609;BME280;2826;51.354;9.588;2023-12-07T00:41:25;98309.06;;;3.86;87.45
5609;BME280;2826;51.354;9.588;2023-12-07T00:43:52;98309.91;;;3.85;87.65
5609;BME280;2826;51.354;9.588;2023-12-07T00:46:19;98315.00;;;3.86;87.54
5609;BME280;2826;51.354;9.588;2023-12-07T00:48:45;98318.47;;;3.85;87.49
5609;BME280;2826;51.354;9.588;2023-12-07T00:51:12;98324.47;;;3.84;87.71
5609;BME280;2826;51.354;9.588;2023-12-07T00:53:40;98329.59;;;3.84;87.37
5609;BME280;2826;51.354;9.588;2023-12-07T00:56:07;98324.44;;;3.86;87.39
5609;BME280;2826;51.354;9.588;2023-12-07T00:58:34;98321.91;;;3.83;87.40
5609;BME280;2826;51.354;9.588;2023-12-07T01:01:01;98329.56;;;3.86;87.37
5609;BME280;2826;51.354;9.588;2023-12-07T01:03:28;98338.13;;;3.85;87.19
5609;BME280;2826;51.354;9.588;2023-12-07T01:05:55;98335.56;;;3.85;87.21
5609;BME280;2826;51.354;9.588;2023-12-07T01:08:21;98336.44;;;3.82;87.06
5609;BME280;2826;51.354;9.588;2023-12-07T01:10:49;98345.81;;;3.85;87.46
5609;BME280;2826;51.354;9.588;2023-12-07T01:13:16;98343.22;;;3.86;87.21
5609;BME280;2826;51.354;9.588;2023-12-07T01:15:42;98353.53;;;3.83;87.30
5609;BME280;2826;51.354;9.588;2023-12-07T01:18:10;98344.13;;;3.84;87.56
5609;BME280;2826;51.354;9.588;2023-12-07T01:20:36;98350.09;;;3.86;87.33
5609;BME280;2826;51.354;9.588;2023-12-07T01:23:03;98350.13;;;3.83;87.00
5609;BME280;2826;51.354;9.588;2023-12-07T01:25:28;98359.50;;;3.84;87.37
5609;BME280;2826;51.354;9.588;2023-12-07T01:27:56;98356.16;;;3.78;87.56
5609;BME280;2826;51.354;9.588;2023-12-07T01:30:24;98354.44;;;3.77;87.55
5609;BME280;2826;51.354;9.588;2023-12-07T01:32:50;98359.56;;;3.77;87.79
5609;BME280;2826;51.354;9.588;2023-12-07T01:35:17;98357.00;;;3.79;87.79
5609;BME280;2826;51.354;9.588;2023-12-07T01:37:44;98357.84;;;3.79;87.64
5609;BME280;2826;51.354;9.588;2023-12-07T01:40:10;98362.13;;;3.79;87.69
5609;BME280;2826;51.354;9.588;2023-12-07T01:42:37;98373.22;;;3.78;87.75
5609;BME280;2826;51.354;9.588;2023-12-07T01:45:06;98370.72;;;3.76;87.79
5609;BME280;2826;51.354;9.588;2023-12-07T01:47:35;98371.53;;;3.80;87.67
5609;BME280;2826;51.354;9.588;2023-12-07T01:50:02;98374.97;;;3.77;88.00
5609;BME280;2826;51.354;9.588;2023-12-07T01:52:30;98375.81;;;3.78;87.83
5609;BME280;2826;51.354;9.588;2023-12-07T01:54:57;98372.34;;;3.82;87.67
5609;BME280;2826;51.354;9.588;2023-12-07T01:57:24;98374.88;;;3.88;87.67
5609;BME280;2826;51.354;9.588;2023-12-07T01:59:51;98373.13;;;3.90;87.47
5609;BME280;2826;51.354;9.588;2023-12-07T02:02:19;98373.13;;;3.90;87.40
5609;BME280;2826;51.354;9.588;2023-12-07T02:04:45;98381.69;;;3.89;87.18
5609;BME280;2826;51.354;9.588;2023-12-07T02:07:12;98378.25;;;3.90;87.31
5609;BME280;2826;51.354;9.588;2023-12-07T02:09:38;98378.25;;;3.92;87.41
5609;BME280;2826;51.354;9.588;2023-12-07T02:12:05;98378.25;;;3.94;87.13
5609;BME280;2826;51.354;9.588;2023-12-07T02:14:32;98383.38;;;3.92;87.28
5609;BME280;2826;51.354;9.588;2023-12-07T02:17:07;98370.66;;;3.81;87.56
5609;BME280;2826;51.354;9.588;2023-12-07T02:19:48;98386.91;;;3.83;87.56
5609;BME280;2826;51.354;9.588;2023-12-07T02:22:18;98388.59;;;3.83;87.77
5609;BME280;2826;51.354;9.588;2023-12-07T02:24:50;98391.97;;;3.88;87.68
5609;BME280;2826;51.354;9.588;2023-12-07T02:27:34;98382.59;;;3.85;87.76
5609;BME280;2826;51.354;9.588;2023-12-07T02:30:01;98382.56;;;3.90;87.50
5609;BME280;2826;51.354;9.588;2023-12-07T02:32:27;98386.81;;;3.92;87.40
5609;BME280;2826;51.354;9.588;2023-12-07T02:34:54;98388.53;;;3.90;87.61
5609;BME280;2826;51.354;9.588;2023-12-07T02:37:22;98390.25;;;3.90;87.76
5609;BME280;2826;51.354;9.588;2023-12-07T02:39:51;98394.53;;;3.89;87.67
5609;BME280;2826;51.354;9.588;2023-12-07T02:42:19;98397.94;;;3.91;87.21
5609;BME280;2826;51.354;9.588;2023-12-07T02:44:52;98400.50;;;3.91;87.42
5609;BME280;2826;51.354;9.588;2023-12-07T02:47:19;98397.97;;;3.87;87.33
5609;BME280;2826;51.354;9.588;2023-12-07T02:49:46;98397.97;;;3.87;87.71
5609;BME280;2826;51.354;9.588;2023-12-07T02:52:13;98401.41;;;3.87;87.66
5609;BME280;2826;51.354;9.588;2023-12-07T02:54:39;98403.13;;;3.85;87.53
5609;BME280;2826;51.354;9.588;2023-12-07T02:57:06;98411.69;;;3.84;87.51
5609;BME280;2826;51.354;9.588;2023-12-07T02:59:33;98414.25;;;3.86;87.62
5609;BME280;2826;51.354;9.588;2023-12-07T03:02:00;98420.22;;;3.85;87.59
5609;BME280;2826;51.354;9.588;2023-12-07T03:04:27;98415.94;;;3.84;87.73
5609;BME280;2826;51.354;9.588;2023-12-07T03:06:54;98418.53;;;3.82;87.69
5609;BME280;2826;51.354;9.588;2023-12-07T03:09:20;98414.25;;;3.81;87.49
5609;BME280;2826;51.354;9.588;2023-12-07T03:11:47;98418.56;;;3.79;87.54
5609;BME280;2826;51.354;9.588;2023-12-07T03:14:12;98419.41;;;3.79;87.36
5609;BME280;2826;51.354;9.588;2023-12-07T03:16:39;98421.16;;;3.76;87.35
5609;BME280;2826;51.354;9.588;2023-12-07T03:19:07;98424.53;;;3.79;87.34
5609;BME280;2826;51.354;9.588;2023-12-07T03:21:38;98413.50;;;3.70;87.46
5609;BME280;2826;51.354;9.588;2023-12-07T03:24:06;98421.22;;;3.70;87.60
5609;BME280;2826;51.354;9.588;2023-12-07T03:26:33;98427.16;;;3.72;87.58
5609;BME280;2826;51.354;9.588;2023-12-07T03:28:59;98421.16;;;3.71;87.52
5609;BME280;2826;51.354;9.588;2023-12-07T03:31:26;98426.34;;;3.70;87.51
5609;BME280;2826;51.354;9.588;2023-12-07T03:33:53;98426.34;;;3.68;87.36
5609;BME280;2826;51.354;9.588;2023-12-07T03:36:22;98428.91;;;3.68;87.68
5609;BME280;2826;51.354;9.588;2023-12-07T03:38:49;98436.59;;;3.70;87.57
5609;BME280;2826;51.354;9.588;2023-12-07T03:41:15;98441.72;;;3.70;87.47
5609;BME280;2826;51.354;9.588;2023-12-07T03:43:42;98440.00;;;3.69;87.58
5609;BME280;2826;51.354;9.588;2023-12-07T03:46:09;98438.31;;;3.69;87.57
5609;BME280;2826;51.354;9.588;2023-12-07T03:48:35;98441.69;;;3.71;87.48
5609;BME280;2826;51.354;9.588;2023-12-07T03:51:02;98439.16;;;3.70;87.45
5609;BME280;2826;51.354;9.588;2023-12-07T03:53:31;98439.16;;;3.70;87.40
5609;BME280;2826;51.354;9.588;2023-12-07T03:55:58;98447.69;;;3.70;87.68
5609;BME280;2826;51.354;9.588;2023-12-07T03:58:24;98439.19;;;3.66;87.46
5609;BME280;2826;51.354;9.588;2023-12-07T04:00:51;98442.59;;;3.67;87.53
5609;BME280;2826;51.354;9.588;2023-12-07T04:03:18;98448.56;;;3.68;87.71
5609;BME280;2826;51.354;9.588;2023-12-07T04:05:44;98452.00;;;3.63;87.55
5609;BME280;2826;51.354;9.588;2023-12-07T04:08:11;98446.00;;;3.64;87.67
5609;BME280;2826;51.354;9.588;2023-12-07T04:10:39;98445.19;;;3.64;87.60
5609;BME280;2826;51.354;9.588;2023-12-07T04:13:06;98449.50;;;3.57;87.71
5609;BME280;2826;51.354;9.588;2023-12-07T04:15:32;98457.19;;;3.57;87.67
5609;BME280;2826;51.354;9.588;2023-12-07T04:17:59;98454.63;;;3.59;87.69
5609;BME280;2826;51.354;9.588;2023-12-07T04:20:26;98448.63;;;3.60;87.37
5609;BME280;2826;51.354;9.588;2023-12-07T04:22:52;98452.91;;;3.58;87.68
5609;BME280;2826;51.354;9.588;2023-12-07T04:25:19;98440.06;;;3.58;87.54
5609;BME280;2826;51.354;9.588;2023-12-07T04:27:49;98435.81;;;3.58;87.76
5609;BME280;2826;51.354;9.588;2023-12-07T04:30:16;98439.25;;;3.56;87.67
5609;BME280;2826;51.354;9.588;2023-12-07T04:32:42;98451.19;;;3.60;87.73
5609;BME280;2826;51.354;9.588;2023-12-07T04:35:09;98448.63;;;3.61;87.47
5609;BME280;2826;51.354;9.588;2023-12-07T04:37:36;98448.63;;;3.63;87.53
5609;BME280;2826;51.354;9.588;2023-12-07T04:40:03;98447.75;;;3.62;87.62
5609;BME280;2826;51.354;9.588;2023-12-07T04:42:31;98445.19;;;3.64;87.58
5609;BME280;2826;51.354;9.588;2023-12-07T04:44:59;98450.31;;;3.65;87.67
5609;BME280;2826;51.354;9.588;2023-12-07T04:47:25;98445.13;;;3.70;87.33
5609;BME280;2826;51.354;9.588;2023-12-07T04:49:52;98447.69;;;3.69;87.53
5609;BME280;2826;51.354;9.588;2023-12-07T04:52:19;98450.25;;;3.69;87.34
5609;BME280;2826;51.354;9.588;2023-12-07T04:54:45;98442.56;;;3.69;87.40
5609;BME280;2826;51.354;9.588;2023-12-07T04:57:12;98453.69;;;3.69;87.57
5609;BME280;2826;51.354;9.588;2023-12-07T04:59:38;98451.13;;;3.71;87.61
5609;BME280;2826;51.354;9.588;2023-12-07T05:02:06;98431.50;;;3.62;87.42
5609;BME280;2826;51.354;9.588;2023-12-07T05:04:33;98449.38;;;3.73;87.54
5609;BME280;2826;51.354;9.588;2023-12-07T05:06:59;98441.69;;;3.73;87.31
5609;BME280;2826;51.354;9.588;2023-12-07T05:09:29;98443.41;;;3.72;87.19
5609;BME280;2826;51.354;9.588;2023-12-07T05:11:56;98452.81;;;3.69;87.51
5609;BME280;2826;51.354;9.588;2023-12-07T05:14:23;98443.50;;;3.60;87.69
5609;BME280;2826;51.354;9.588;2023-12-07T05:16:50;98453.69;;;3.66;88.06
5609;BME280;2826;51.354;9.588;2023-12-07T05:19:19;98449.44;;;3.66;87.73
5609;BME280;2826;51.354;9.588;2023-12-07T05:21:47;98455.44;;;3.65;87.79
5609;BME280;2826;51.354;9.588;2023-12-07T05:24:13;98450.31;;;3.65;87.79
5609;BME280;2826;51.354;9.588;2023-12-07T05:26:41;98448.56;;;3.64;88.01
5609;BME280;2826;51.354;9.588;2023-12-07T05:29:08;98450.31;;;3.64;87.87
5609;BME280;2826;51.354;9.588;2023-12-07T05:31:35;98463.13;;;3.64;87.99
5609;BME280;2826;51.354;9.588;2023-12-07T05:34:02;98425.69;;;3.41;87.88
5609;BME280;2826;51.354;9.588;2023-12-07T05:36:30;98470.81;;;3.64;88.11
5609;BME280;2826;51.354;9.588;2023-12-07T05:38:57;98458.00;;;3.62;87.96
5609;BME280;2826;51.354;9.588;2023-12-07T05:41:23;98465.69;;;3.64;87.91
5609;BME280;2826;51.354;9.588;2023-12-07T05:43:50;98461.41;;;3.64;87.72
5609;BME280;2826;51.354;9.588;2023-12-07T05:46:17;98464.00;;;3.63;87.39
5609;BME280;2826;51.354;9.588;2023-12-07T05:48:44;98463.13;;;3.64;87.62
5609;BME280;2826;51.354;9.588;2023-12-07T05:51:12;98461.44;;;3.63;87.57
5609;BME280;2826;51.354;9.588;2023-12-07T05:53:40;98461.44;;;3.63;87.54
5609;BME280;2826;51.354;9.588;2023-12-07T05:56:08;98461.44;;;3.63;87.78
5609;BME280;2826;51.354;9.588;2023-12-07T05:58:35;98469.97;;;3.65;87.56
5609;BME280;2826;51.354;9.588;2023-12-07T06:01:02;98469.94;;;3.70;87.46
5609;BME280;2826;51.354;9.588;2023-12-07T06:03:29;98471.66;;;3.68;87.44
5609;BME280;2826;51.354;9.588;2023-12-07T06:05:56;98471.63;;;3.71;87.73
5609;BME280;2826;51.354;9.588;2023-12-07T06:08:22;98477.66;;;3.66;87.71
5609;BME280;2826;51.354;9.588;2023-12-07T06:10:51;98480.22;;;3.66;87.65
5609;BME280;2826;51.354;9.588;2023-12-07T06:13:17;98476.78;;;3.68;87.55
5609;BME280;2826;51.354;9.588;2023-12-07T06:15:44;98469.09;;;3.64;87.82
5609;BME280;2826;51.354;9.588;2023-12-07T06:18:11;98475.06;;;3.68;87.58
5609;BME280;2826;51.354;9.588;2023-12-07T06:20:37;98484.47;;;3.71;87.83
5609;BME280;2826;51.354;9.588;2023-12-07T06:23:04;98483.59;;;3.72;87.80
5609;BME280;2826;51.354;9.588;2023-12-07T06:25:32;98492.16;;;3.71;87.79
5609;BME280;2826;51.354;9.588;2023-12-07T06:28:00;98493.84;;;3.72;87.46
5609;BME280;2826;51.354;9.588;2023-12-07T06:30:26;98492.13;;;3.74;87.74
5609;BME280;2826;51.354;9.588;2023-12-07T06:32:53;98484.47;;;3.66;87.88
5609;BME280;2826;51.354;9.588;2023-12-07T06:35:20;98496.41;;;3.72;87.68
5609;BME280;2826;51.354;9.588;2023-12-07T06:37:46;98500.72;;;3.70;87.74
5609;BME280;2826;51.354;9.588;2023-12-07T06:40:13;98495.56;;;3.71;87.81
5609;BME280;2826;51.354;9.588;2023-12-07T06:42:40;98497.28;;;3.69;87.80
5609;BME280;2826;51.354;9.588;2023-12-07T06:45:08;98495.59;;;3.68;87.66
5609;BME280;2826;51.354;9.588;2023-12-07T06:47:36;98501.56;;;3.69;87.76
5609;BME280;2826;51.354;9.588;2023-12-07T06:50:04;98502.41;;;3.68;87.88
5609;BME280;2826;51.354;9.588;2023-12-07T06:52:33;98499.84;;;3.68;87.50
5609;BME280;2826;51.354;9.588;2023-12-07T06:55:00;98496.47;;;3.67;87.50
5609;BME280;2826;51.354;9.588;2023-12-07T06:57:27;98503.28;;;3.68;87.65
5609;BME280;2826;51.354;9.588;2023-12-07T06:59:54;98488.78;;;3.62;87.69
5609;BME280;2826;51.354;9.588;2023-12-07T07:02:22;98505.84;;;3.66;87.38
5609;BME280;2826;51.354;9.588;2023-12-07T07:04:49;98505.84;;;3.65;87.34
5609;BME280;2826;51.354;9.588;2023-12-07T07:07:23;98500.78;;;3.60;87.60
5609;BME280;2826;51.354;9.588;2023-12-07T07:09:50;98501.59;;;3.64;87.66
5609;BME280;2826;51.354;9.588;2023-12-07T07:12:17;98509.31;;;3.62;87.96
5609;BME280;2826;51.354;9.588;2023-12-07T07:14:43;98510.97;;;3.66;87.52
5609;BME280;2826;51.354;9.588;2023-12-07T07:17:10;98509.28;;;3.67;87.74
5609;BME280;2826;51.354;9.588;2023-12-07T07:19:38;98512.69;;;3.68;87.73
5609;BME280;2826;51.354;9.588;2023-12-07T07:22:05;98516.94;;;3.70;87.70
5609;BME280;2826;51.354;9.588;2023-12-07T07:24:32;98520.38;;;3.71;87.71
5609;BME280;2826;51.354;9.588;2023-12-07T07:26:58;98515.25;;;3.69;87.76
5609;BME280;2826;51.354;9.588;2023-12-07T07:29:25;98514.38;;;3.69;87.67
5609;BME280;2826;51.354;9.588;2023-12-07T07:31:53;98523.75;;;3.71;87.50
5609;BME280;2826;51.354;9.588;2023-12-07T07:34:19;98518.63;;;3.73;87.57
5609;BME280;2826;51.354;9.588;2023-12-07T07:36:47;98529.69;;;3.79;87.72
5609;BME280;2826;51.354;9.588;2023-12-07T07:39:15;98534.00;;;3.79;87.66
5609;BME280;2826;51.354;9.588;2023-12-07T07:41:41;98528.88;;;3.81;87.58
5609;BME280;2826;51.354;9.588;2023-12-07T07:44:08;98528.81;;;3.82;87.55
5609;BME280;2826;51.354;9.588;2023-12-07T07:46:34;98528.81;;;3.84;87.68
5609;BME280;2826;51.354;9.588;2023-12-07T07:49:01;98527.13;;;3.83;87.53
5609;BME280;2826;51.354;9.588;2023-12-07T07:51:29;98529.69;;;3.86;87.36
5609;BME280;2826;51.354;9.588;2023-12-07T07:53:58;98532.19;;;3.90;87.45
5609;BME280;2826;51.354;9.588;2023-12-07T07:56:25;98533.06;;;3.89;87.15
5609;BME280;2826;51.354;9.588;2023-12-07T07:58:51;98531.31;;;3.93;87.35
5609;BME280;2826;51.354;9.588;2023-12-07T08:01:18;98538.13;;;4.00;87.26
5609;BME280;2826;51.354;9.588;2023-12-07T08:03:44;98536.44;;;4.01;86.97
5609;BME280;2826;51.354;9.588;2023-12-07T08:06:11;98538.13;;;4.02;87.07
5609;BME280;2826;51.354;9.588;2023-12-07T08:08:37;98544.09;;;4.02;87.18
5609;BME280;2826;51.354;9.588;2023-12-07T08:11:06;98539.81;;;4.03;86.97
5609;BME280;2826;51.354;9.588;2023-12-07T08:13:32;98538.13;;;4.03;87.22
5609;BME280;2826;51.354;9.588;2023-12-07T08:15:59;98544.94;;;4.08;86.97
5609;BME280;2826;51.354;9.588;2023-12-07T08:18:25;98542.38;;;4.08;87.12
5609;BME280;2826;51.354;9.588;2023-12-07T08:20:53;98544.91;;;4.09;86.83
5609;BME280;2826;51.354;9.588;2023-12-07T08:23:19;98540.63;;;4.08;86.63
5609;BME280;2826;51.354;9.588;2023-12-07T08:25:46;98541.50;;;4.10;86.85
5609;BME280;2826;51.354;9.588;2023-12-07T08:28:14;98546.56;;;4.13;86.60
5609;BME280;2826;51.354;9.588;2023-12-07T08:30:41;98518.50;;;3.95;86.65
5609;BME280;2826;51.354;9.588;2023-12-07T08:33:07;98538.84;;;4.18;86.50
5609;BME280;2826;51.354;9.588;2023-12-07T08:35:34;98543.13;;;4.17;86.43
5609;BME280;2826;51.354;9.588;2023-12-07T08:38:01;98544.00;;;4.18;86.34
5609;BME280;2826;51.354;9.588;2023-12-07T08:40:28;98542.28;;;4.17;86.08
5609;BME280;2826;51.354;9.588;2023-12-07T08:42:55;98543.97;;;4.20;86.25
5609;BME280;2826;51.354;9.588;2023-12-07T08:45:22;98540.53;;;4.22;86.37
5609;BME280;2826;51.354;9.588;2023-12-07T08:47:49;98544.81;;;4.23;85.96
5609;BME280;2826;51.354;9.588;2023-12-07T08:50:16;98537.91;;;4.27;85.93
5609;BME280;2826;51.354;9.588;2023-12-07T08:52:42;98536.22;;;4.27;86.14
5609;BME280;2826;51.354;9.588;2023-12-07T08:55:10;98529.38;;;4.28;85.92
5609;BME280;2826;51.354;9.588;2023-12-07T08:57:36;98527.63;;;4.30;86.14
5609;BME280;2826;51.354;9.588;2023-12-07T09:00:04;98531.03;;;4.34;85.76
5609;BME280;2826;51.354;9.588;2023-12-07T09:02:32;98526.72;;;4.37;86.02
5609;BME280;2826;51.354;9.588;2023-12-07T09:04:59;98535.25;;;4.41;85.67
5609;BME280;2826;51.354;9.588;2023-12-07T09:07:25;98536.06;;;4.46;85.79
5609;BME280;2826;51.354;9.588;2023-12-07T09:09:53;98526.63;;;4.48;85.46
5609;BME280;2826;51.354;9.588;2023-12-07T09:12:19;98529.16;;;4.51;85.80
5609;BME280;2826;51.354;9.588;2023-12-07T09:14:46;98530.84;;;4.54;85.75
5609;BME280;2826;51.354;9.588;2023-12-07T09:17:13;98537.66;;;4.58;85.45
5609;BME280;2826;51.354;9.588;2023-12-07T09:19:44;98538.50;;;4.62;85.77
5609;BME280;2826;51.354;9.588;2023-12-07T09:22:11;98540.19;;;4.63;85.16
5609;BME280;2826;51.354;9.588;2023-12-07T09:24:40;98546.13;;;4.66;85.32
5609;BME280;2826;51.354;9.588;2023-12-07T09:27:06;98538.44;;;4.66;85.15
5609;BME280;2826;51.354;9.588;2023-12-07T09:29:33;98537.53;;;4.70;84.82
5609;BME280;2826;51.354;9.588;2023-12-07T09:31:59;98544.34;;;4.78;85.09
5609;BME280;2826;51.354;9.588;2023-12-07T09:34:25;98537.44;;;4.83;85.09
5609;BME280;2826;51.354;9.588;2023-12-07T09:37:06;98536.56;;;4.84;84.76
5609;BME280;2826;51.354;9.588;2023-12-07T09:39:33;98530.59;;;4.82;83.77
5609;BME280;2826;51.354;9.588;2023-12-07T09:41:59;98538.34;;;4.77;83.33
5609;BME280;2826;51.354;9.588;2023-12-07T09:44:26;98533.94;;;4.90;83.72
5609;BME280;2826;51.354;9.588;2023-12-07T09:46:53;98539.03;;;4.93;83.55
5609;BME280;2826;51.354;9.588;2023-12-07T09:49:19;98540.69;;;4.97;83.58
5609;BME280;2826;51.354;9.588;2023-12-07T09:51:46;98547.50;;;5.02;83.40
5609;BME280;2826;51.354;9.588;2023-12-07T09:54:16;98535.44;;;5.07;83.67
5609;BME280;2826;51.354;9.588;2023-12-07T09:56:43;98523.47;;;5.04;83.13
5609;BME280;2826;51.354;9.588;2023-12-07T09:59:09;98538.78;;;5.14;83.45
5609;BME280;2826;51.354;9.588;2023-12-07T10:01:36;98543.94;;;5.14;83.10
5609;BME280;2826;51.354;9.588;2023-12-07T10:04:19;98547.34;;;5.17;82.86
5609;BME280;2826;51.354;9.588;2023-12-07T10:06:48;98552.53;;;5.11;82.03
5609;BME280;2826;51.354;9.588;2023-12-07T10:09:16;98549.09;;;5.12;82.16
5609;BME280;2826;51.354;9.588;2023-12-07T10:11:44;98547.34;;;5.17;82.33
5609;BME280;2826;51.354;9.588;2023-12-07T10:14:11;98549.03;;;5.18;82.18
5609;BME280;2826;51.354;9.588;2023-12-07T10:16:37;98545.56;;;5.24;82.42
5609;BME280;2826;51.354;9.588;2023-12-07T10:19:13;98547.28;;;5.22;81.43
5609;BME280;2826;51.354;9.588;2023-12-07T10:21:43;98531.88;;;5.19;81.57
5609;BME280;2826;51.354;9.588;2023-12-07T10:24:09;98549.75;;;5.30;81.18
5609;BME280;2826;51.354;9.588;2023-12-07T10:26:37;98533.47;;;5.32;81.28
5609;BME280;2826;51.354;9.588;2023-12-07T10:29:05;98536.69;;;5.47;81.45
5609;BME280;2826;51.354;9.588;2023-12-07T10:31:32;98535.66;;;5.62;81.64
5609;BME280;2826;51.354;9.588;2023-12-07T10:33:59;98532.06;;;5.72;81.01
5609;BME280;2826;51.354;9.588;2023-12-07T10:36:26;98532.72;;;5.85;80.95
5609;BME280;2826;51.354;9.588;2023-12-07T10:38:53;98536.31;;;5.77;77.93
5609;BME280;2826;51.354;9.588;2023-12-07T10:41:20;98526.66;;;5.89;78.91
5609;BME280;2826;51.354;9.588;2023-12-07T10:43:51;98527.38;;;6.01;78.21
5609;BME280;2826;51.354;9.588;2023-12-07T10:46:20;98526.97;;;6.27;78.55
5609;BME280;2826;51.354;9.588;2023-12-07T10:48:47;98525.81;;;6.46;77.37
5609;BME280;2826;51.354;9.588;2023-12-07T10:51:17;98535.06;;;6.58;76.30
5609;BME280;2826;51.354;9.588;2023-12-07T10:53:48;98529.91;;;6.58;74.85
5609;BME280;2826;51.354;9.588;2023-12-07T10:56:29;98515.16;;;6.66;74.52
5609;BME280;2826;51.354;9.588;2023-12-07T10:59:00;98511.59;;;6.73;74.61
5609;BME280;2826;51.354;9.588;2023-12-07T11:01:27;98503.97;;;6.67;73.80
5609;BME280;2826;51.354;9.588;2023-12-07T11:03:55;98492.69;;;6.74;74.15
5609;BME280;2826;51.354;9.588;2023-12-07T11:06:23;98487.56;;;6.73;73.39
5609;BME280;2826;51.354;9.588;2023-12-07T11:08:52;98487.81;;;6.57;72.51
5609;BME280;2826;51.354;9.588;2023-12-07T11:11:27;98481.84;;;6.57;72.65
5609;BME280;2826;51.354;9.588;2023-12-07T11:13:58;98480.16;;;6.54;72.62
5609;BME280;2826;51.354;9.588;2023-12-07T11:16:30;98485.31;;;6.56;72.23
5609;BME280;2826;51.354;9.588;2023-12-07T11:18:57;98482.81;;;6.49;71.76
5609;BME280;2826;51.354;9.588;2023-12-07T11:21:24;98483.91;;;6.36;72.08
5609;BME280;2826;51.354;9.588;2023-12-07T11:23:52;98483.16;;;6.31;72.14
5609;BME280;2826;51.354;9.588;2023-12-07T11:26:19;98481.31;;;6.37;72.28
5609;BME280;2826;51.354;9.588;2023-12-07T11:28:46;98476.00;;;6.47;72.40
5609;BME280;2826;51.354;9.588;2023-12-07T11:31:12;98468.03;;;6.59;72.26
5609;BME280;2826;51.354;9.588;2023-12-07T11:33:40;98466.97;;;6.70;71.97
5609;BME280;2826;51.354;9.588;2023-12-07T11:36:09;98461.84;;;6.68;71.35
5609;BME280;2826;51.354;9.588;2023-12-07T11:38:36;98466.09;;;6.71;71.75
5609;BME280;2826;51.354;9.588;2023-12-07T11:41:03;98466.47;;;6.50;71.01
5609;BME280;2826;51.354;9.588;2023-12-07T11:43:36;98460.66;;;6.40;71.61
5609;BME280;2826;51.354;9.588;2023-12-07T11:46:05;98391.69;;;6.08;71.80
5609;BME280;2826;51.354;9.588;2023-12-07T11:48:32;98461.22;;;6.57;71.12
5609;BME280;2826;51.354;9.588;2023-12-07T11:51:02;98469.78;;;6.57;70.46
5609;BME280;2826;51.354;9.588;2023-12-07T11:53:30;98456.91;;;6.57;69.31
5609;BME280;2826;51.354;9.588;2023-12-07T11:55:58;98462.91;;;6.58;69.75
5609;BME280;2826;51.354;9.588;2023-12-07T11:58:25;98464.22;;;6.33;69.70
5609;BME280;2826;51.354;9.588;2023-12-07T12:00:53;98433.81;;;6.02;69.58
5609;BME280;2826;51.354;9.588;2023-12-07T12:03:22;98457.09;;;5.94;69.74
5609;BME280;2826;51.354;9.588;2023-12-07T12:05:48;98454.56;;;5.91;69.91
5609;BME280;2826;51.354;9.588;2023-12-07T12:08:17;98454.00;;;5.73;69.89
5609;BME280;2826;51.354;9.588;2023-12-07T12:10:44;98438.81;;;5.58;70.56
5609;BME280;2826;51.354;9.588;2023-12-07T12:13:12;98439.84;;;5.46;70.95
5609;BME280;2826;51.354;9.588;2023-12-07T12:15:39;98439.13;;;5.33;71.55
5609;BME280;2826;51.354;9.588;2023-12-07T12:18:06;98400.19;;;4.98;71.26
5609;BME280;2826;51.354;9.588;2023-12-07T12:20:33;98444.44;;;5.20;71.35
5609;BME280;2826;51.354;9.588;2023-12-07T12:23:00;98434.28;;;5.13;72.23
5609;BME280;2826;51.354;9.588;2023-12-07T12:25:29;98431.59;;;5.20;72.69
5609;BME280;2826;51.354;9.588;2023-12-07T12:27:58;98435.53;;;5.45;73.82
5609;BME280;2826;51.354;9.588;2023-12-07T12:30:27;98436.84;;;5.72;73.01
5609;BME280;2826;51.354;9.588;2023-12-07T12:32:55;98442.03;;;5.71;72.38
5609;BME280;2826;51.354;9.588;2023-12-07T12:35:21;98441.38;;;5.56;72.11
5609;BME280;2826;51.354;9.588;2023-12-07T12:37:48;98438.06;;;5.48;72.63
5609;BME280;2826;51.354;9.588;2023-12-07T12:40:18;98431.47;;;5.30;72.86
5609;BME280;2826;51.354;9.588;2023-12-07T12:42:47;98434.91;;;5.29;73.42
5609;BME280;2826;51.354;9.588;2023-12-07T12:45:15;98423.75;;;5.30;73.58
5609;BME280;2826;51.354;9.588;2023-12-07T12:47:43;98422.09;;;5.26;73.79
5609;BME280;2826;51.354;9.588;2023-12-07T12:50:10;98422.91;;;5.31;73.90
5609;BME280;2826;51.354;9.588;2023-12-07T12:52:36;98427.19;;;5.30;72.89
5609;BME280;2826;51.354;9.588;2023-12-07T12:55:07;98428.22;;;5.18;73.30
5609;BME280;2826;51.354;9.588;2023-12-07T12:57:35;98430.06;;;5.07;73.48
5609;BME280;2826;51.354;9.588;2023-12-07T13:00:04;98424.22;;;4.95;73.59
5609;BME280;2826;51.354;9.588;2023-12-07T13:02:32;98418.25;;;4.92;74.16
5609;BME280;2826;51.354;9.588;2023-12-07T13:04:59;98418.25;;;4.92;73.39
5609;BME280;2826;51.354;9.588;2023-12-07T13:07:25;98422.81;;;4.71;73.68
5609;BME280;2826;51.354;9.588;2023-12-07T13:09:52;98416.03;;;4.62;74.36
5609;BME280;2826;51.354;9.588;2023-12-07T13:12:19;98422.81;;;4.71;74.32
5609;BME280;2826;51.354;9.588;2023-12-07T13:14:47;98415.22;;;4.62;74.75
5609;BME280;2826;51.354;9.588;2023-12-07T13:17:15;98407.56;;;4.55;74.89
5609;BME280;2826;51.354;9.588;2023-12-07T13:19:42;98397.25;;;4.58;74.42
5609;BME280;2826;51.354;9.588;2023-12-07T13:22:09;98390.44;;;4.56;74.67
5609;BME280;2826;51.354;9.588;2023-12-07T13:24:35;98393.63;;;4.75;73.79
5609;BME280;2826;51.354;9.588;2023-12-07T13:27:02;98395.22;;;4.84;73.15
5609;BME280;2826;51.354;9.588;2023-12-07T13:29:29;98395.19;;;4.87;72.76
5609;BME280;2826;51.354;9.588;2023-12-07T13:31:56;98395.34;;;4.73;71.85
5609;BME280;2826;51.354;9.588;2023-12-07T13:34:25;98390.34;;;4.64;71.21